PWSweather.com
Personal Weather Stations
Station Observations
KCAEXETE14
Park Place, Exeter, CA 93221

Park PlaceExeter, CA 93221

Lat: 36.283487, Lon: -119.152218

Elevation: 380

Station Type: Davis Vantage Vue

http://weather.manyjourneys.com/

Latest ConditionsUpdated 10:00:00 PM PDT Wednesday, Apr 24, 2019
Currently Today's Max Today's Min Today's Average
Temperature 72.0°F22.2°C 92.9°F33.8°C 57.7°F14.3°C 74.0°F23.3°C
Dew Point 56.4°F13.6°C 58.0°F14.4°C 48.1°F8.9°C 54.0°F12.2°C
Winds Calm Calm 2.3 mph -3.7 kmh - - 0.2 mph 0.3 kmh
Wind Gusts -- 5.8 mph9.3 kmh - -
Humidity 58% 85% 24% 54%
Pressure 29.85 in1010.8 mb 29.96 in1014.6 mb 29.81 in1009.5 mb -
Hour Temp Dew Point Humidity Winds Wind Gusts Pressure Precip Precip Rate Daily Precip Total
10:00 PM 72.0°F22.2°C 56.4°F13.6°C 58% Calm Calm -- 29.85 in1010.8 mb - 0.00 in0.0 mm 0.00 in0.0 mm
09:55 PM 72.5°F22.5°C 56.4°F13.6°C 57% Calm Calm -- 29.85 in1010.8 mb - 0.00 in0.0 mm 0.00 in0.0 mm
09:50 PM 73.1°F22.8°C 56.5°F13.6°C 56% Calm Calm -- 29.85 in1010.8 mb - 0.00 in0.0 mm 0.00 in0.0 mm
09:45 PM 74.1°F23.4°C 57.4°F14.1°C 56% Calm Calm 1.2 mph1.9 kmh 29.85 in1010.8 mb - 0.00 in0.0 mm 0.00 in0.0 mm
09:40 PM 74.2°F23.4°C 55.4°F13.0°C 52% Calm Calm -- 29.84 in1010.5 mb - 0.00 in0.0 mm 0.00 in0.0 mm
09:35 PM 74.0°F23.3°C 55.3°F12.9°C 52% Calm Calm -- 29.84 in1010.5 mb - 0.00 in0.0 mm 0.00 in0.0 mm
09:30 PM 74.4°F23.6°C 55.1°F12.8°C 51% Calm Calm -- 29.84 in1010.5 mb - 0.00 in0.0 mm 0.00 in0.0 mm
09:25 PM 74.6°F23.7°C 54.7°F12.6°C 50% Calm Calm -- 29.84 in1010.5 mb - 0.00 in0.0 mm 0.00 in0.0 mm
09:20 PM 74.9°F23.8°C 54.4°F12.4°C 49% Calm Calm -- 29.84 in1010.5 mb - 0.00 in0.0 mm 0.00 in0.0 mm
09:15 PM 75.0°F23.9°C 54.0°F12.2°C 48% Calm Calm -- 29.84 in1010.5 mb - 0.00 in0.0 mm 0.00 in0.0 mm
09:10 PM 75.2°F24.0°C 55.8°F13.2°C 51% Calm Calm -- 29.84 in1010.5 mb - 0.00 in0.0 mm 0.00 in0.0 mm
09:05 PM 75.4°F24.1°C 54.3°F12.4°C 48% Calm Calm -- 29.83 in1010.2 mb - 0.00 in0.0 mm 0.00 in0.0 mm
09:00 PM 75.7°F24.3°C 54.0°F12.2°C 47% Calm Calm -- 29.83 in1010.2 mb - 0.00 in0.0 mm 0.00 in0.0 mm
08:55 PM 75.9°F24.4°C 54.2°F12.3°C 47% Calm Calm -- 29.83 in1010.2 mb - 0.00 in0.0 mm 0.00 in0.0 mm
08:50 PM 76.2°F24.6°C 53.9°F12.2°C 46% Calm Calm -- 29.83 in1010.2 mb - 0.00 in0.0 mm 0.00 in0.0 mm
08:45 PM 76.3°F24.6°C 54.0°F12.2°C 46% Calm Calm -- 29.83 in1010.2 mb - 0.00 in0.0 mm 0.00 in0.0 mm
08:40 PM 76.2°F24.6°C 54.5°F12.5°C 47% Calm Calm -- 29.83 in1010.2 mb - 0.00 in0.0 mm 0.00 in0.0 mm
08:35 PM 76.4°F24.7°C 54.1°F12.3°C 46% Calm Calm -- 29.83 in1010.2 mb - 0.00 in0.0 mm 0.00 in0.0 mm
08:30 PM 76.9°F24.9°C 54.5°F12.5°C 46% Calm Calm -- 29.83 in1010.2 mb - 0.00 in0.0 mm 0.00 in0.0 mm
08:25 PM 77.4°F25.2°C 54.4°F12.4°C 45% Calm Calm -- 29.82 in1009.8 mb - 0.00 in0.0 mm 0.00 in0.0 mm
08:20 PM 77.9°F25.5°C 53.6°F12.0°C 43% Calm Calm -- 29.82 in1009.8 mb - 0.00 in0.0 mm 0.00 in0.0 mm
08:15 PM 78.4°F25.8°C 54.7°F12.6°C 44% Calm Calm -- 29.82 in1009.8 mb - 0.00 in0.0 mm 0.00 in0.0 mm
08:10 PM 79.0°F26.1°C 54.6°F12.6°C 43% Calm Calm -- 29.82 in1009.8 mb - 0.00 in0.0 mm 0.00 in0.0 mm
08:05 PM 79.8°F26.6°C 55.3°F12.9°C 43% Calm Calm -- 29.82 in1009.8 mb - 0.00 in0.0 mm 0.00 in0.0 mm
08:00 PM 80.6°F27.0°C 54.7°F12.6°C 41% Calm Calm -- 29.82 in1009.8 mb - 0.00 in0.0 mm 0.00 in0.0 mm
07:55 PM 81.4°F27.4°C 54.1°F12.3°C 39% Calm Calm -- 29.82 in1009.8 mb - 0.00 in0.0 mm 0.00 in0.0 mm
07:50 PM 82.2°F27.9°C 54.7°F12.6°C 39% Calm Calm -- 29.82 in1009.8 mb - 0.00 in0.0 mm 0.00 in0.0 mm
07:45 PM 82.8°F28.2°C 53.8°F12.1°C 37% Calm Calm -- 29.82 in1009.8 mb - 0.00 in0.0 mm 0.00 in0.0 mm
07:40 PM 83.4°F28.6°C 53.6°F12.0°C 36% Calm Calm -- 29.82 in1009.8 mb - 0.00 in0.0 mm 0.00 in0.0 mm
07:35 PM 83.9°F28.8°C 53.3°F11.8°C 35% Calm Calm -- 29.82 in1009.8 mb - 0.00 in0.0 mm 0.00 in0.0 mm
07:30 PM 84.4°F29.1°C 53.0°F11.7°C 34% Calm Calm -- 29.81 in1009.5 mb - 0.00 in0.0 mm 0.00 in0.0 mm
07:25 PM 84.8°F29.3°C 53.3°F11.8°C 34% Calm Calm 1.2 mph1.9 kmh 29.82 in1009.8 mb - 0.00 in0.0 mm 0.00 in0.0 mm
07:20 PM 85.3°F29.6°C 52.9°F11.6°C 33% Calm Calm -- 29.81 in1009.5 mb - 0.00 in0.0 mm 0.00 in0.0 mm
07:15 PM 85.8°F29.9°C 52.5°F11.4°C 32% Calm Calm -- 29.81 in1009.5 mb - 0.00 in0.0 mm 0.00 in0.0 mm
07:10 PM 86.3°F30.2°C 53.0°F11.7°C 32% Calm Calm -- 29.81 in1009.5 mb - 0.00 in0.0 mm 0.00 in0.0 mm
07:05 PM 86.8°F30.4°C 52.5°F11.4°C 31% Calm Calm 1.2 mph1.9 kmh 29.81 in1009.5 mb - 0.00 in0.0 mm 0.00 in0.0 mm
07:00 PM 87.4°F30.8°C 52.1°F11.2°C 30% Calm Calm -- 29.81 in1009.5 mb - 0.00 in0.0 mm 0.00 in0.0 mm
06:55 PM 87.9°F31.1°C 51.7°F10.9°C 29% Calm Calm -- 29.81 in1009.5 mb - 0.00 in0.0 mm 0.00 in0.0 mm
06:50 PM 88.5°F31.4°C 50.3°F10.2°C 27% Calm Calm 1.2 mph1.9 kmh 29.81 in1009.5 mb - 0.00 in0.0 mm 0.00 in0.0 mm
06:45 PM 89.1°F31.7°C 49.8°F9.9°C 26% Calm Calm 1.2 mph1.9 kmh 29.81 in1009.5 mb - 0.00 in0.0 mm 0.00 in0.0 mm
06:40 PM 89.7°F32.1°C 48.1°F8.9°C 24% 1.2 mph NW1.9 kmh NW 2.3 mph3.7 kmh 29.81 in1009.5 mb - 0.00 in0.0 mm 0.00 in0.0 mm
04:10 PM 92.9°F33.8°C 50.8°F10.4°C 24% Calm Calm -- 29.83 in1010.2 mb - 0.00 in0.0 mm 0.00 in0.0 mm
04:05 PM 92.7°F33.7°C 50.6°F10.3°C 24% 1.2 mph NW1.9 kmh NW 1.2 mph1.9 kmh 29.84 in1010.5 mb - 0.00 in0.0 mm 0.00 in0.0 mm
04:00 PM 92.6°F33.7°C 52.7°F11.5°C 26% 1.2 mph WNW1.9 kmh WNW 2.3 mph3.7 kmh 29.84 in1010.5 mb - 0.00 in0.0 mm 0.00 in0.0 mm
03:55 PM 92.4°F33.6°C 52.5°F11.4°C 26% 1.2 mph NW1.9 kmh NW 1.2 mph1.9 kmh 29.84 in1010.5 mb - 0.00 in0.0 mm 0.00 in0.0 mm
03:50 PM 92.2°F33.4°C 52.4°F11.3°C 26% 2.3 mph WNW3.7 kmh WNW 5.8 mph9.3 kmh 29.84 in1010.5 mb - 0.00 in0.0 mm 0.00 in0.0 mm
03:45 PM 91.9°F33.3°C 50.0°F10.0°C 24% Calm Calm -- 29.84 in1010.5 mb - 0.00 in0.0 mm 0.00 in0.0 mm
03:40 PM 92.2°F33.4°C 51.3°F10.7°C 25% 1.2 mph NW1.9 kmh NW 2.3 mph3.7 kmh 29.85 in1010.8 mb - 0.00 in0.0 mm 0.00 in0.0 mm
03:35 PM 92.5°F33.6°C 51.6°F10.9°C 25% 2.3 mph W3.7 kmh W 5.8 mph9.3 kmh 29.85 in1010.8 mb - 0.00 in0.0 mm 0.00 in0.0 mm
03:30 PM 92.5°F33.6°C 51.6°F10.9°C 25% 1.2 mph WNW1.9 kmh WNW 2.3 mph3.7 kmh 29.85 in1010.8 mb - 0.00 in0.0 mm 0.00 in0.0 mm
03:25 PM 91.9°F33.3°C 51.1°F10.6°C 25% Calm Calm -- 29.86 in1011.2 mb - 0.00 in0.0 mm 0.00 in0.0 mm
03:20 PM 91.7°F33.2°C 50.9°F10.5°C 25% 1.2 mph NW1.9 kmh NW 3.5 mph5.6 kmh 29.86 in1011.2 mb - 0.00 in0.0 mm 0.00 in0.0 mm
03:15 PM 92.0°F33.3°C 50.0°F10.0°C 24% Calm Calm 1.2 mph1.9 kmh 29.86 in1011.2 mb - 0.00 in0.0 mm 0.00 in0.0 mm
03:10 PM 92.0°F33.3°C 52.2°F11.2°C 26% Calm Calm 1.2 mph1.9 kmh 29.86 in1011.2 mb - 0.00 in0.0 mm 0.00 in0.0 mm
03:05 PM 92.0°F33.3°C 52.2°F11.2°C 26% Calm Calm -- 29.86 in1011.2 mb - 0.00 in0.0 mm 0.00 in0.0 mm
03:00 PM 91.8°F33.2°C 49.9°F9.9°C 24% 1.2 mph NW1.9 kmh NW 3.5 mph5.6 kmh 29.86 in1011.2 mb - 0.00 in0.0 mm 0.00 in0.0 mm
02:55 PM 92.2°F33.4°C 52.4°F11.3°C 26% 1.2 mph NW1.9 kmh NW 2.3 mph3.7 kmh 29.87 in1011.5 mb - 0.00 in0.0 mm 0.00 in0.0 mm
02:50 PM 92.1°F33.4°C 51.2°F10.7°C 25% Calm Calm -- 29.87 in1011.5 mb - 0.00 in0.0 mm 0.00 in0.0 mm
02:45 PM 91.9°F33.3°C 53.1°F11.7°C 27% Calm Calm 3.5 mph5.6 kmh 29.87 in1011.5 mb - 0.00 in0.0 mm 0.00 in0.0 mm
02:40 PM 92.3°F33.5°C 51.4°F10.8°C 25% Calm Calm 1.2 mph1.9 kmh 29.87 in1011.5 mb - 0.00 in0.0 mm 0.00 in0.0 mm
02:35 PM 92.0°F33.3°C 56.1°F13.4°C 30% Calm Calm 2.3 mph3.7 kmh 29.88 in1011.9 mb - 0.00 in0.0 mm 0.00 in0.0 mm
02:30 PM 91.6°F33.1°C 52.9°F11.6°C 27% Calm Calm 2.3 mph3.7 kmh 29.88 in1011.9 mb - 0.00 in0.0 mm 0.00 in0.0 mm
02:25 PM 90.8°F32.7°C 54.2°F12.3°C 29% Calm Calm 3.5 mph5.6 kmh 29.88 in1011.9 mb - 0.00 in0.0 mm 0.00 in0.0 mm
02:20 PM 89.9°F32.2°C 53.4°F11.9°C 29% Calm Calm 1.2 mph1.9 kmh 29.88 in1011.9 mb - 0.00 in0.0 mm 0.00 in0.0 mm
02:15 PM 90.0°F32.2°C 53.5°F11.9°C 29% 1.2 mph NW1.9 kmh NW 2.3 mph3.7 kmh 29.88 in1011.9 mb - 0.00 in0.0 mm 0.00 in0.0 mm
02:10 PM 89.9°F32.2°C 53.4°F11.9°C 29% 1.2 mph NW1.9 kmh NW 2.3 mph3.7 kmh 29.88 in1011.9 mb - 0.00 in0.0 mm 0.00 in0.0 mm
02:05 PM 89.3°F31.8°C 54.7°F12.6°C 31% Calm Calm 2.3 mph3.7 kmh 29.89 in1012.2 mb - 0.00 in0.0 mm 0.00 in0.0 mm
02:00 PM 89.8°F32.1°C 54.2°F12.3°C 30% 2.3 mph NW3.7 kmh NW 3.5 mph5.6 kmh 29.89 in1012.2 mb - 0.00 in0.0 mm 0.00 in0.0 mm
01:55 PM 89.2°F31.8°C 51.8°F11.0°C 28% 1.2 mph WNW1.9 kmh WNW 1.2 mph1.9 kmh 29.89 in1012.2 mb - 0.00 in0.0 mm 0.00 in0.0 mm
01:50 PM 89.2°F31.8°C 53.7°F12.1°C 30% 2.3 mph NW3.7 kmh NW 3.5 mph5.6 kmh 29.89 in1012.2 mb - 0.00 in0.0 mm 0.00 in0.0 mm
01:45 PM 89.6°F32.0°C 54.0°F12.2°C 30% 1.2 mph NW1.9 kmh NW 2.3 mph3.7 kmh 29.89 in1012.2 mb - 0.00 in0.0 mm 0.00 in0.0 mm
01:40 PM 89.8°F32.1°C 54.3°F12.4°C 30% 1.2 mph NW1.9 kmh NW 3.5 mph5.6 kmh 29.89 in1012.2 mb - 0.00 in0.0 mm 0.00 in0.0 mm
01:35 PM 89.7°F32.1°C 53.2°F11.8°C 29% Calm Calm 1.2 mph1.9 kmh 29.89 in1012.2 mb - 0.00 in0.0 mm 0.00 in0.0 mm
01:30 PM 89.7°F32.1°C 55.0°F12.8°C 31% Calm Calm 2.3 mph3.7 kmh 29.90 in1012.5 mb - 0.00 in0.0 mm 0.00 in0.0 mm
01:25 PM 89.9°F32.2°C 54.3°F12.4°C 30% 1.2 mph NW1.9 kmh NW 3.5 mph5.6 kmh 29.90 in1012.5 mb - 0.00 in0.0 mm 0.00 in0.0 mm
01:20 PM 89.7°F32.1°C 54.2°F12.3°C 30% Calm Calm 1.2 mph1.9 kmh 29.90 in1012.5 mb - 0.00 in0.0 mm 0.00 in0.0 mm
01:15 PM 89.2°F31.8°C 58.0°F14.4°C 35% Calm Calm -- 29.90 in1012.5 mb - 0.00 in0.0 mm 0.00 in0.0 mm
01:10 PM 88.1°F31.2°C 55.4°F13.0°C 33% Calm Calm 1.2 mph1.9 kmh 29.91 in1012.9 mb - 0.00 in0.0 mm 0.00 in0.0 mm
01:05 PM 88.2°F31.2°C 52.8°F11.6°C 30% Calm Calm 2.3 mph3.7 kmh 29.91 in1012.9 mb - 0.00 in0.0 mm 0.00 in0.0 mm
01:00 PM 88.0°F31.1°C 55.3°F12.9°C 33% 1.2 mph NW1.9 kmh NW 2.3 mph3.7 kmh 29.91 in1012.9 mb - 0.00 in0.0 mm 0.00 in0.0 mm
12:55 PM 87.7°F30.9°C 55.0°F12.8°C 33% 1.2 mph NW1.9 kmh NW 2.3 mph3.7 kmh 29.91 in1012.9 mb - 0.00 in0.0 mm 0.00 in0.0 mm
12:50 PM 86.9°F30.5°C 56.0°F13.3°C 35% Calm Calm -- 29.91 in1012.9 mb - 0.00 in0.0 mm 0.00 in0.0 mm
12:45 PM 87.0°F30.6°C 53.6°F12.0°C 32% 1.2 mph NW1.9 kmh NW 3.5 mph5.6 kmh 29.91 in1012.9 mb - 0.00 in0.0 mm 0.00 in0.0 mm
12:40 PM 87.0°F30.6°C 54.4°F12.4°C 33% Calm Calm 2.3 mph3.7 kmh 29.92 in1013.2 mb - 0.00 in0.0 mm 0.00 in0.0 mm
12:35 PM 86.4°F30.2°C 53.9°F12.2°C 33% 1.2 mph NW1.9 kmh NW -- 29.92 in1013.2 mb - 0.00 in0.0 mm 0.00 in0.0 mm
12:30 PM 86.4°F30.2°C 54.7°F12.6°C 34% 1.2 mph W1.9 kmh W 1.2 mph1.9 kmh 29.92 in1013.2 mb - 0.00 in0.0 mm 0.00 in0.0 mm
12:25 PM 86.4°F30.2°C 54.7°F12.6°C 34% 1.2 mph NW1.9 kmh NW 3.5 mph5.6 kmh 29.92 in1013.2 mb - 0.00 in0.0 mm 0.00 in0.0 mm
12:20 PM 86.8°F30.4°C 55.9°F13.3°C 35% 1.2 mph NW1.9 kmh NW 3.5 mph5.6 kmh 29.92 in1013.2 mb - 0.00 in0.0 mm 0.00 in0.0 mm
12:15 PM 87.1°F30.6°C 55.3°F12.9°C 34% Calm Calm 2.3 mph3.7 kmh 29.92 in1013.2 mb - 0.00 in0.0 mm 0.00 in0.0 mm
12:10 PM 86.7°F30.4°C 57.3°F14.1°C 37% Calm Calm 1.2 mph1.9 kmh 29.93 in1013.5 mb - 0.00 in0.0 mm 0.00 in0.0 mm
12:05 PM 86.8°F30.4°C 55.0°F12.8°C 34% 1.2 mph W1.9 kmh W 2.3 mph3.7 kmh 29.93 in1013.5 mb - 0.00 in0.0 mm 0.00 in0.0 mm
12:00 PM 86.8°F30.4°C 55.8°F13.2°C 35% Calm Calm 1.2 mph1.9 kmh 29.93 in1013.5 mb - 0.00 in0.0 mm 0.00 in0.0 mm
11:55 AM 86.0°F30.0°C 56.7°F13.7°C 37% Calm Calm -- 29.93 in1013.5 mb - 0.00 in0.0 mm 0.00 in0.0 mm
11:50 AM 85.0°F29.4°C 55.8°F13.2°C 37% 1.2 mph SSE1.9 kmh SSE -- 29.93 in1013.5 mb - 0.00 in0.0 mm 0.00 in0.0 mm
11:45 AM 84.6°F29.2°C 55.5°F13.1°C 37% 1.2 mph NW1.9 kmh NW 2.3 mph3.7 kmh 29.93 in1013.5 mb - 0.00 in0.0 mm 0.00 in0.0 mm
11:40 AM 84.3°F29.1°C 55.1°F12.8°C 37% Calm Calm 1.2 mph1.9 kmh 29.94 in1013.9 mb - 0.00 in0.0 mm 0.00 in0.0 mm
11:35 AM 84.3°F29.1°C 55.9°F13.3°C 38% 1.2 mph NW1.9 kmh NW 2.3 mph3.7 kmh 29.94 in1013.9 mb - 0.00 in0.0 mm 0.00 in0.0 mm
11:30 AM 84.7°F29.3°C 55.5°F13.1°C 37% 1.2 mph NW1.9 kmh NW 3.5 mph5.6 kmh 29.94 in1013.9 mb - 0.00 in0.0 mm 0.00 in0.0 mm
11:25 AM 84.1°F28.9°C 56.5°F13.6°C 39% Calm Calm 1.2 mph1.9 kmh 29.94 in1013.9 mb - 0.00 in0.0 mm 0.00 in0.0 mm
11:20 AM 84.1°F28.9°C 54.3°F12.4°C 36% 1.2 mph N1.9 kmh N 2.3 mph3.7 kmh 29.94 in1013.9 mb - 0.00 in0.0 mm 0.00 in0.0 mm
11:15 AM 84.0°F28.9°C 56.4°F13.6°C 39% Calm Calm -- 29.94 in1013.9 mb - 0.00 in0.0 mm 0.00 in0.0 mm
11:10 AM 83.2°F28.4°C 53.5°F11.9°C 36% Calm Calm -- 29.94 in1013.9 mb - 0.00 in0.0 mm 0.00 in0.0 mm
11:05 AM 83.2°F28.4°C 53.5°F11.9°C 36% 1.2 mph NW1.9 kmh NW 3.5 mph5.6 kmh 29.95 in1014.2 mb - 0.00 in0.0 mm 0.00 in0.0 mm
11:00 AM 82.6°F28.1°C 55.8°F13.2°C 40% Calm Calm 2.3 mph3.7 kmh 29.95 in1014.2 mb - 0.00 in0.0 mm 0.00 in0.0 mm
10:55 AM 81.9°F27.7°C 56.6°F13.7°C 42% Calm Calm 2.3 mph3.7 kmh 29.95 in1014.2 mb - 0.00 in0.0 mm 0.00 in0.0 mm
10:50 AM 81.8°F27.7°C 53.7°F12.1°C 38% 1.2 mph NW1.9 kmh NW 1.2 mph1.9 kmh 29.95 in1014.2 mb - 0.00 in0.0 mm 0.00 in0.0 mm
10:45 AM 81.7°F27.6°C 54.3°F12.4°C 39% Calm Calm 1.2 mph1.9 kmh 29.95 in1014.2 mb - 0.00 in0.0 mm 0.00 in0.0 mm
10:40 AM 82.0°F27.8°C 55.3°F12.9°C 40% 1.2 mph NW1.9 kmh NW 3.5 mph5.6 kmh 29.95 in1014.2 mb - 0.00 in0.0 mm 0.00 in0.0 mm
10:35 AM 81.4°F27.4°C 56.1°F13.4°C 42% Calm Calm 1.2 mph1.9 kmh 29.95 in1014.2 mb - 0.00 in0.0 mm 0.00 in0.0 mm
10:30 AM 81.2°F27.3°C 55.3°F12.9°C 41% Calm Calm 1.2 mph1.9 kmh 29.95 in1014.2 mb - 0.00 in0.0 mm 0.00 in0.0 mm
10:25 AM 81.5°F27.5°C 56.2°F13.4°C 42% 1.2 mph NW1.9 kmh NW 3.5 mph5.6 kmh 29.95 in1014.2 mb - 0.00 in0.0 mm 0.00 in0.0 mm
10:20 AM 81.3°F27.4°C 54.7°F12.6°C 40% 1.2 mph SSE1.9 kmh SSE 3.5 mph5.6 kmh 29.95 in1014.2 mb - 0.00 in0.0 mm 0.00 in0.0 mm
10:15 AM 81.3°F27.4°C 55.3°F12.9°C 41% Calm Calm 3.5 mph5.6 kmh 29.95 in1014.2 mb - 0.00 in0.0 mm 0.00 in0.0 mm
10:10 AM 80.9°F27.2°C 55.0°F12.8°C 41% 1.2 mph SSE1.9 kmh SSE 2.3 mph3.7 kmh 29.95 in1014.2 mb - 0.00 in0.0 mm 0.00 in0.0 mm
10:05 AM 80.7°F27.1°C 55.5°F13.1°C 42% Calm Calm -- 29.95 in1014.2 mb - 0.00 in0.0 mm 0.00 in0.0 mm
10:00 AM 80.4°F26.9°C 55.2°F12.9°C 42% Calm Calm 2.3 mph3.7 kmh 29.95 in1014.2 mb - 0.00 in0.0 mm 0.00 in0.0 mm
09:55 AM 79.9°F26.6°C 54.8°F12.7°C 42% Calm Calm 1.2 mph1.9 kmh 29.95 in1014.2 mb - 0.00 in0.0 mm 0.00 in0.0 mm
09:50 AM 79.3°F26.3°C 54.9°F12.7°C 43% Calm Calm 1.2 mph1.9 kmh 29.95 in1014.2 mb - 0.00 in0.0 mm 0.00 in0.0 mm
09:45 AM 78.8°F26.0°C 54.4°F12.4°C 43% Calm Calm 1.2 mph1.9 kmh 29.95 in1014.2 mb - 0.00 in0.0 mm 0.00 in0.0 mm
09:40 AM 78.5°F25.8°C 52.8°F11.6°C 41% 1.2 mph SSE1.9 kmh SSE 2.3 mph3.7 kmh 29.95 in1014.2 mb - 0.00 in0.0 mm 0.00 in0.0 mm
09:35 AM 78.2°F25.7°C 53.8°F12.1°C 43% 1.2 mph S1.9 kmh S 3.5 mph5.6 kmh 29.95 in1014.2 mb - 0.00 in0.0 mm 0.00 in0.0 mm
09:30 AM 77.9°F25.5°C 53.6°F12.0°C 43% 1.2 mph SE1.9 kmh SE 2.3 mph3.7 kmh 29.95 in1014.2 mb - 0.00 in0.0 mm 0.00 in0.0 mm
09:25 AM 77.5°F25.3°C 53.9°F12.2°C 44% 1.2 mph S1.9 kmh S 1.2 mph1.9 kmh 29.95 in1014.2 mb - 0.00 in0.0 mm 0.00 in0.0 mm
09:20 AM 77.2°F25.1°C 54.2°F12.3°C 45% Calm Calm 1.2 mph1.9 kmh 29.95 in1014.2 mb - 0.00 in0.0 mm 0.00 in0.0 mm
09:15 AM 76.3°F24.6°C 54.6°F12.6°C 47% 1.2 mph S1.9 kmh S 3.5 mph5.6 kmh 29.95 in1014.2 mb - 0.00 in0.0 mm 0.00 in0.0 mm
09:10 AM 75.9°F24.4°C 54.8°F12.7°C 48% Calm Calm 2.3 mph3.7 kmh 29.95 in1014.2 mb - 0.00 in0.0 mm 0.00 in0.0 mm
09:05 AM 75.3°F24.1°C 54.8°F12.7°C 49% Calm Calm -- 29.95 in1014.2 mb - 0.00 in0.0 mm 0.00 in0.0 mm
09:00 AM 75.0°F23.9°C 54.5°F12.5°C 49% Calm Calm 2.3 mph3.7 kmh 29.95 in1014.2 mb - 0.00 in0.0 mm 0.00 in0.0 mm
08:55 AM 74.6°F23.7°C 55.8°F13.2°C 52% Calm Calm -- 29.96 in1014.6 mb - 0.00 in0.0 mm 0.00 in0.0 mm
08:50 AM 74.0°F23.3°C 54.7°F12.6°C 51% Calm Calm 2.3 mph3.7 kmh 29.96 in1014.6 mb - 0.00 in0.0 mm 0.00 in0.0 mm
08:45 AM 73.5°F23.1°C 55.3°F12.9°C 53% Calm Calm 1.2 mph1.9 kmh 29.96 in1014.6 mb - 0.00 in0.0 mm 0.00 in0.0 mm
08:40 AM 72.7°F22.6°C 54.6°F12.6°C 53% 1.2 mph S1.9 kmh S 2.3 mph3.7 kmh 29.96 in1014.6 mb - 0.00 in0.0 mm 0.00 in0.0 mm
08:35 AM 72.4°F22.4°C 54.3°F12.4°C 53% Calm Calm -- 29.96 in1014.6 mb - 0.00 in0.0 mm 0.00 in0.0 mm
08:30 AM 71.9°F22.2°C 54.8°F12.7°C 55% Calm Calm 3.5 mph5.6 kmh 29.96 in1014.6 mb - 0.00 in0.0 mm 0.00 in0.0 mm
08:25 AM 71.3°F21.8°C 55.3°F12.9°C 57% Calm Calm -- 29.96 in1014.6 mb - 0.00 in0.0 mm 0.00 in0.0 mm
08:20 AM 69.7°F20.9°C 54.7°F12.6°C 59% Calm Calm -- 29.96 in1014.6 mb - 0.00 in0.0 mm 0.00 in0.0 mm
08:10 AM 67.4°F19.7°C 55.7°F13.2°C 66% Calm Calm -- 29.96 in1014.6 mb - 0.00 in0.0 mm 0.00 in0.0 mm
08:05 AM 66.9°F19.4°C 55.2°F12.9°C 66% Calm Calm -- 29.96 in1014.6 mb - 0.00 in0.0 mm 0.00 in0.0 mm
08:00 AM 67.2°F19.6°C 55.0°F12.8°C 65% Calm Calm -- 29.96 in1014.6 mb - 0.00 in0.0 mm 0.00 in0.0 mm
07:55 AM 67.8°F19.9°C 55.6°F13.1°C 65% Calm Calm 1.2 mph1.9 kmh 29.96 in1014.6 mb - 0.00 in0.0 mm 0.00 in0.0 mm
07:50 AM 66.8°F19.3°C 55.1°F12.8°C 66% Calm Calm -- 29.96 in1014.6 mb - 0.00 in0.0 mm 0.00 in0.0 mm
07:45 AM 65.7°F18.7°C 54.8°F12.7°C 68% Calm Calm -- 29.96 in1014.6 mb - 0.00 in0.0 mm 0.00 in0.0 mm
07:40 AM 64.5°F18.1°C 54.8°F12.7°C 71% Calm Calm -- 29.96 in1014.6 mb - 0.00 in0.0 mm 0.00 in0.0 mm
07:35 AM 62.9°F17.2°C 55.2°F12.9°C 76% Calm Calm -- 29.96 in1014.6 mb - 0.00 in0.0 mm 0.00 in0.0 mm
07:30 AM 61.7°F16.5°C 56.1°F13.4°C 82% Calm Calm -- 29.96 in1014.6 mb - 0.00 in0.0 mm 0.00 in0.0 mm
07:25 AM 61.0°F16.1°C 55.5°F13.1°C 82% Calm Calm -- 29.96 in1014.6 mb - 0.00 in0.0 mm 0.00 in0.0 mm
07:20 AM 60.5°F15.8°C 54.3°F12.4°C 80% Calm Calm -- 29.95 in1014.2 mb - 0.00 in0.0 mm 0.00 in0.0 mm
07:15 AM 60.0°F15.6°C 53.8°F12.1°C 80% Calm Calm -- 29.95 in1014.2 mb - 0.00 in0.0 mm 0.00 in0.0 mm
07:10 AM 59.6°F15.3°C 54.1°F12.3°C 82% Calm Calm -- 29.95 in1014.2 mb - 0.00 in0.0 mm 0.00 in0.0 mm
07:05 AM 59.2°F15.1°C 54.0°F12.2°C 83% Calm Calm -- 29.95 in1014.2 mb - 0.00 in0.0 mm 0.00 in0.0 mm
07:00 AM 59.0°F15.0°C 53.8°F12.1°C 83% Calm Calm -- 29.95 in1014.2 mb - 0.00 in0.0 mm 0.00 in0.0 mm
06:55 AM 58.5°F14.7°C 53.7°F12.1°C 84% Calm Calm -- 29.95 in1014.2 mb - 0.00 in0.0 mm 0.00 in0.0 mm
06:50 AM 58.0°F14.4°C 53.2°F11.8°C 84% Calm Calm -- 29.94 in1013.9 mb - 0.00 in0.0 mm 0.00 in0.0 mm
06:45 AM 57.8°F14.3°C 53.0°F11.7°C 84% Calm Calm -- 29.94 in1013.9 mb - 0.00 in0.0 mm 0.00 in0.0 mm
06:40 AM 57.8°F14.3°C 52.7°F11.5°C 83% Calm Calm -- 29.94 in1013.9 mb - 0.00 in0.0 mm 0.00 in0.0 mm
06:35 AM 57.9°F14.4°C 52.7°F11.5°C 83% Calm Calm -- 29.93 in1013.5 mb - 0.00 in0.0 mm 0.00 in0.0 mm
06:30 AM 58.0°F14.4°C 52.5°F11.4°C 82% Calm Calm -- 29.93 in1013.5 mb - 0.00 in0.0 mm 0.00 in0.0 mm
06:25 AM 58.2°F14.6°C 52.4°F11.3°C 81% Calm Calm -- 29.93 in1013.5 mb - 0.00 in0.0 mm 0.00 in0.0 mm
06:20 AM 58.4°F14.7°C 52.6°F11.4°C 81% Calm Calm -- 29.93 in1013.5 mb - 0.00 in0.0 mm 0.00 in0.0 mm
06:15 AM 58.4°F14.7°C 52.9°F11.6°C 82% Calm Calm -- 29.92 in1013.2 mb - 0.00 in0.0 mm 0.00 in0.0 mm
06:10 AM 58.2°F14.6°C 52.7°F11.5°C 82% Calm Calm -- 29.92 in1013.2 mb - 0.00 in0.0 mm 0.00 in0.0 mm
06:05 AM 58.2°F14.6°C 53.0°F11.7°C 83% Calm Calm -- 29.92 in1013.2 mb - 0.00 in0.0 mm 0.00 in0.0 mm
06:00 AM 58.1°F14.5°C 53.0°F11.7°C 83% Calm Calm -- 29.92 in1013.2 mb - 0.00 in0.0 mm 0.00 in0.0 mm
05:55 AM 57.9°F14.4°C 53.1°F11.7°C 84% Calm Calm -- 29.92 in1013.2 mb - 0.00 in0.0 mm 0.00 in0.0 mm
05:50 AM 57.8°F14.3°C 53.0°F11.7°C 84% Calm Calm -- 29.91 in1012.9 mb - 0.00 in0.0 mm 0.00 in0.0 mm
05:45 AM 57.7°F14.3°C 53.2°F11.8°C 85% Calm Calm -- 29.91 in1012.9 mb - 0.00 in0.0 mm 0.00 in0.0 mm
05:40 AM 57.7°F14.3°C 52.9°F11.6°C 84% Calm Calm -- 29.91 in1012.9 mb - 0.00 in0.0 mm 0.00 in0.0 mm
05:35 AM 57.8°F14.3°C 52.7°F11.5°C 83% Calm Calm -- 29.91 in1012.9 mb - 0.00 in0.0 mm 0.00 in0.0 mm
05:30 AM 58.1°F14.5°C 52.6°F11.4°C 82% Calm Calm -- 29.91 in1012.9 mb - 0.00 in0.0 mm 0.00 in0.0 mm
05:25 AM 58.6°F14.8°C 52.1°F11.2°C 79% Calm Calm -- 29.91 in1012.9 mb - 0.00 in0.0 mm 0.00 in0.0 mm
05:20 AM 59.3°F15.2°C 52.5°F11.4°C 78% Calm Calm -- 29.91 in1012.9 mb - 0.00 in0.0 mm 0.00 in0.0 mm
05:15 AM 60.2°F15.7°C 53.3°F11.8°C 78% Calm Calm -- 29.91 in1012.9 mb - 0.00 in0.0 mm 0.00 in0.0 mm
05:10 AM 60.6°F15.9°C 53.3°F11.8°C 77% Calm Calm -- 29.91 in1012.9 mb - 0.00 in0.0 mm 0.00 in0.0 mm
05:05 AM 60.8°F16.0°C 53.2°F11.8°C 76% Calm Calm -- 29.91 in1012.9 mb - 0.00 in0.0 mm 0.00 in0.0 mm
05:00 AM 61.1°F16.2°C 53.5°F11.9°C 76% Calm Calm -- 29.91 in1012.9 mb - 0.00 in0.0 mm 0.00 in0.0 mm
04:55 AM 61.4°F16.3°C 53.4°F11.9°C 75% Calm Calm -- 29.91 in1012.9 mb - 0.00 in0.0 mm 0.00 in0.0 mm
04:50 AM 61.1°F16.2°C 53.2°F11.8°C 75% Calm Calm -- 29.91 in1012.9 mb - 0.00 in0.0 mm 0.00 in0.0 mm
04:45 AM 61.0°F16.1°C 53.0°F11.7°C 75% Calm Calm -- 29.91 in1012.9 mb - 0.00 in0.0 mm 0.00 in0.0 mm
04:40 AM 61.1°F16.2°C 53.1°F11.7°C 75% Calm Calm -- 29.91 in1012.9 mb - 0.00 in0.0 mm 0.00 in0.0 mm
04:35 AM 61.3°F16.3°C 52.9°F11.6°C 74% Calm Calm -- 29.91 in1012.9 mb - 0.00 in0.0 mm 0.00 in0.0 mm
04:30 AM 61.4°F16.3°C 53.0°F11.7°C 74% Calm Calm -- 29.91 in1012.9 mb - 0.00 in0.0 mm 0.00 in0.0 mm
04:25 AM 61.4°F16.3°C 53.0°F11.7°C 74% Calm Calm -- 29.91 in1012.9 mb - 0.00 in0.0 mm 0.00 in0.0 mm
04:20 AM 60.9°F16.1°C 52.6°F11.4°C 74% Calm Calm -- 29.91 in1012.9 mb - 0.00 in0.0 mm 0.00 in0.0 mm
04:15 AM 60.9°F16.1°C 52.6°F11.4°C 74% Calm Calm -- 29.91 in1012.9 mb - 0.00 in0.0 mm 0.00 in0.0 mm
04:10 AM 61.2°F16.2°C 52.5°F11.4°C 73% Calm Calm -- 29.91 in1012.9 mb - 0.00 in0.0 mm 0.00 in0.0 mm
04:05 AM 61.6°F16.4°C 52.5°F11.4°C 72% Calm Calm -- 29.91 in1012.9 mb - 0.00 in0.0 mm 0.00 in0.0 mm
04:00 AM 61.9°F16.6°C 51.6°F10.9°C 69% Calm Calm -- 29.92 in1013.2 mb - 0.00 in0.0 mm 0.00 in0.0 mm
03:55 AM 62.3°F16.8°C 52.4°F11.3°C 70% Calm Calm -- 29.92 in1013.2 mb - 0.00 in0.0 mm 0.00 in0.0 mm
03:50 AM 62.4°F16.9°C 51.7°F10.9°C 68% Calm Calm -- 29.92 in1013.2 mb - 0.00 in0.0 mm 0.00 in0.0 mm
03:45 AM 62.5°F16.9°C 51.8°F11.0°C 68% Calm Calm -- 29.92 in1013.2 mb - 0.00 in0.0 mm 0.00 in0.0 mm
03:40 AM 62.5°F16.9°C 51.8°F11.0°C 68% Calm Calm -- 29.92 in1013.2 mb - 0.00 in0.0 mm 0.00 in0.0 mm
03:35 AM 62.2°F16.8°C 51.9°F11.1°C 69% Calm Calm 1.2 mph1.9 kmh 29.92 in1013.2 mb - 0.00 in0.0 mm 0.00 in0.0 mm
03:30 AM 61.9°F16.6°C 52.4°F11.3°C 71% Calm Calm -- 29.92 in1013.2 mb - 0.00 in0.0 mm 0.00 in0.0 mm
03:25 AM 61.6°F16.4°C 52.5°F11.4°C 72% Calm Calm -- 29.92 in1013.2 mb - 0.00 in0.0 mm 0.00 in0.0 mm
03:20 AM 61.2°F16.2°C 52.4°F11.3°C 73% Calm Calm -- 29.92 in1013.2 mb - 0.00 in0.0 mm 0.00 in0.0 mm
03:15 AM 60.5°F15.8°C 52.9°F11.6°C 76% Calm Calm -- 29.92 in1013.2 mb - 0.00 in0.0 mm 0.00 in0.0 mm
03:10 AM 60.1°F15.6°C 52.9°F11.6°C 77% Calm Calm -- 29.92 in1013.2 mb - 0.00 in0.0 mm 0.00 in0.0 mm
03:05 AM 59.9°F15.5°C 52.7°F11.5°C 77% Calm Calm -- 29.92 in1013.2 mb - 0.00 in0.0 mm 0.00 in0.0 mm
03:00 AM 59.7°F15.4°C 52.8°F11.6°C 78% Calm Calm -- 29.92 in1013.2 mb - 0.00 in0.0 mm 0.00 in0.0 mm
02:55 AM 59.8°F15.4°C 53.3°F11.8°C 79% Calm Calm -- 29.92 in1013.2 mb - 0.00 in0.0 mm 0.00 in0.0 mm
02:50 AM 59.8°F15.4°C 52.9°F11.6°C 78% Calm Calm -- 29.92 in1013.2 mb - 0.00 in0.0 mm 0.00 in0.0 mm
02:45 AM 59.9°F15.5°C 53.4°F11.9°C 79% Calm Calm -- 29.92 in1013.2 mb - 0.00 in0.0 mm 0.00 in0.0 mm
02:40 AM 59.9°F15.5°C 53.4°F11.9°C 79% Calm Calm -- 29.92 in1013.2 mb - 0.00 in0.0 mm 0.00 in0.0 mm
02:35 AM 59.9°F15.5°C 53.4°F11.9°C 79% Calm Calm 1.2 mph1.9 kmh 29.92 in1013.2 mb - 0.00 in0.0 mm 0.00 in0.0 mm
02:30 AM 59.9°F15.5°C 53.7°F12.1°C 80% Calm Calm 1.2 mph1.9 kmh 29.92 in1013.2 mb - 0.00 in0.0 mm 0.00 in0.0 mm
02:25 AM 59.9°F15.5°C 53.7°F12.1°C 80% Calm Calm 1.2 mph1.9 kmh 29.92 in1013.2 mb - 0.00 in0.0 mm 0.00 in0.0 mm
02:20 AM 59.9°F15.5°C 53.7°F12.1°C 80% Calm Calm 1.2 mph1.9 kmh 29.92 in1013.2 mb - 0.00 in0.0 mm 0.00 in0.0 mm
02:15 AM 59.9°F15.5°C 54.1°F12.3°C 81% Calm Calm 1.2 mph1.9 kmh 29.92 in1013.2 mb - 0.00 in0.0 mm 0.00 in0.0 mm
02:10 AM 59.8°F15.4°C 54.0°F12.2°C 81% Calm Calm -- 29.92 in1013.2 mb - 0.00 in0.0 mm 0.00 in0.0 mm
02:05 AM 59.8°F15.4°C 54.3°F12.4°C 82% Calm Calm -- 29.92 in1013.2 mb - 0.00 in0.0 mm 0.00 in0.0 mm
02:00 AM 59.9°F15.5°C 54.8°F12.7°C 83% Calm Calm -- 29.92 in1013.2 mb - 0.00 in0.0 mm 0.00 in0.0 mm
01:55 AM 60.1°F15.6°C 54.9°F12.7°C 83% Calm Calm -- 29.92 in1013.2 mb - 0.00 in0.0 mm 0.00 in0.0 mm
01:50 AM 60.4°F15.8°C 55.2°F12.9°C 83% Calm Calm -- 29.92 in1013.2 mb - 0.00 in0.0 mm 0.00 in0.0 mm
01:45 AM 60.5°F15.8°C 55.0°F12.8°C 82% Calm Calm -- 29.92 in1013.2 mb - 0.00 in0.0 mm 0.00 in0.0 mm
01:40 AM 60.8°F16.0°C 55.2°F12.9°C 82% Calm Calm -- 29.92 in1013.2 mb - 0.00 in0.0 mm 0.00 in0.0 mm
01:35 AM 60.9°F16.1°C 55.4°F13.0°C 82% Calm Calm -- 29.92 in1013.2 mb - 0.00 in0.0 mm 0.00 in0.0 mm
01:30 AM 61.1°F16.2°C 55.2°F12.9°C 81% Calm Calm -- 29.92 in1013.2 mb - 0.00 in0.0 mm 0.00 in0.0 mm
01:25 AM 61.3°F16.3°C 55.8°F13.2°C 82% Calm Calm -- 29.92 in1013.2 mb - 0.00 in0.0 mm 0.00 in0.0 mm
01:20 AM 61.4°F16.3°C 55.2°F12.9°C 80% Calm Calm -- 29.92 in1013.2 mb - 0.00 in0.0 mm 0.00 in0.0 mm
01:15 AM 61.5°F16.4°C 55.3°F12.9°C 80% Calm Calm -- 29.91 in1012.9 mb - 0.00 in0.0 mm 0.00 in0.0 mm
01:10 AM 61.7°F16.5°C 55.5°F13.1°C 80% Calm Calm -- 29.91 in1012.9 mb - 0.00 in0.0 mm 0.00 in0.0 mm
01:05 AM 61.9°F16.6°C 55.3°F12.9°C 79% Calm Calm -- 29.91 in1012.9 mb - 0.00 in0.0 mm 0.00 in0.0 mm
01:00 AM 62.1°F16.7°C 55.5°F13.1°C 79% Calm Calm -- 29.91 in1012.9 mb - 0.00 in0.0 mm 0.00 in0.0 mm
12:55 AM 62.4°F16.9°C 55.8°F13.2°C 79% Calm Calm -- 29.91 in1012.9 mb - 0.00 in0.0 mm 0.00 in0.0 mm
12:50 AM 62.8°F17.1°C 55.8°F13.2°C 78% Calm Calm -- 29.91 in1012.9 mb - 0.00 in0.0 mm 0.00 in0.0 mm
12:45 AM 63.0°F17.2°C 56.4°F13.6°C 79% Calm Calm -- 29.91 in1012.9 mb - 0.00 in0.0 mm 0.00 in0.0 mm
12:40 AM 63.1°F17.3°C 55.8°F13.2°C 77% Calm Calm -- 29.91 in1012.9 mb - 0.00 in0.0 mm 0.00 in0.0 mm
12:35 AM 63.3°F17.4°C 55.6°F13.1°C 76% Calm Calm -- 29.91 in1012.9 mb - 0.00 in0.0 mm 0.00 in0.0 mm
12:30 AM 63.5°F17.5°C 56.2°F13.4°C 77% Calm Calm -- 29.91 in1012.9 mb - 0.00 in0.0 mm 0.00 in0.0 mm
12:25 AM 63.7°F17.6°C 56.4°F13.6°C 77% Calm Calm -- 29.91 in1012.9 mb - 0.00 in0.0 mm 0.00 in0.0 mm
12:20 AM 63.9°F17.7°C 56.2°F13.4°C 76% Calm Calm -- 29.91 in1012.9 mb - 0.00 in0.0 mm 0.00 in0.0 mm
12:15 AM 63.9°F17.7°C 56.5°F13.6°C 77% Calm Calm -- 29.91 in1012.9 mb - 0.00 in0.0 mm 0.00 in0.0 mm
12:10 AM 63.9°F17.7°C 55.8°F13.2°C 75% Calm Calm -- 29.91 in1012.9 mb - 0.00 in0.0 mm 0.00 in0.0 mm
12:05 AM 64.2°F17.9°C 55.4°F13.0°C 73% Calm Calm -- 29.91 in1012.9 mb - 0.00 in0.0 mm 0.00 in0.0 mm
12:00 AM 64.6°F18.1°C 55.4°F13.0°C 72% Calm Calm -- 29.91 in1012.9 mb - 0.00 in0.0 mm 0.00 in0.0 mm